createdAt,value
2023-03-23T15:58:17.905Z,76.02
2023-03-23T16:00:46.534Z,76.21
2023-03-23T16:03:24.353Z,76.61
2023-03-23T16:05:52.037Z,76.48
2023-03-23T16:08:19.089Z,76.91
2023-03-23T16:10:46.449Z,76.74
2023-03-23T16:13:13.506Z,76.82
2023-03-23T16:15:41.118Z,77.03
2023-03-23T16:18:16.236Z,77.34
2023-03-23T16:20:43.844Z,77.14
2023-03-23T16:23:11.132Z,77.34
2023-03-23T16:25:41.048Z,77.01
2023-03-23T16:28:12.255Z,77.05
2023-03-23T16:30:40.066Z,77.07
2023-03-23T16:33:07.381Z,77.03
2023-03-23T16:35:35.923Z,76.96
2023-03-23T16:38:07.518Z,76.75
2023-03-23T16:40:37.973Z,76.93
2023-03-23T16:43:08.643Z,76.76
2023-03-23T16:45:40.021Z,76.70
2023-03-23T16:48:09.906Z,76.84
2023-03-23T16:50:38.135Z,76.68
2023-03-23T16:53:08.355Z,76.82
2023-03-23T16:55:36.251Z,76.40
2023-03-23T17:00:34.572Z,76.63
2023-03-23T17:03:02.126Z,76.55
2023-03-23T17:05:30.089Z,76.66
2023-03-23T17:07:57.936Z,77.21
2023-03-23T17:10:27.856Z,77.29
2023-03-23T17:12:55.956Z,77.39
2023-03-23T17:15:25.713Z,77.58
2023-03-23T17:17:54.023Z,77.97
2023-03-23T17:20:21.622Z,78.12
2023-03-23T17:22:48.790Z,77.78
2023-03-23T17:25:15.935Z,77.65
2023-03-23T17:27:43.148Z,77.82
2023-03-23T17:30:11.346Z,77.94
2023-03-23T17:32:39.250Z,78.06
2023-03-23T17:35:07.118Z,77.88
2023-03-23T17:37:34.786Z,78.43
2023-03-23T17:40:01.977Z,78.48
2023-03-23T17:42:30.171Z,78.23
2023-03-23T17:44:57.190Z,78.71
2023-03-23T17:47:24.277Z,78.79
2023-03-23T17:49:51.643Z,78.82
2023-03-23T17:52:18.713Z,79.31
2023-03-23T17:54:45.889Z,79.33
2023-03-23T17:57:12.859Z,79.17
2023-03-23T17:59:40.028Z,79.60
2023-03-23T18:02:07.469Z,79.71
2023-03-23T18:04:34.605Z,79.77
2023-03-23T18:07:01.697Z,79.54
2023-03-23T18:09:28.916Z,79.12
2023-03-23T18:11:56.899Z,79.20
2023-03-23T18:14:24.090Z,79.66
2023-03-23T18:16:51.199Z,79.82
2023-03-23T18:19:18.494Z,79.29
2023-03-23T18:21:46.126Z,79.80
2023-03-23T18:24:13.599Z,79.74
2023-03-23T18:26:41.406Z,79.58
2023-03-23T18:29:08.381Z,79.15
2023-03-23T18:31:40.143Z,79.39
2023-03-23T18:34:07.819Z,79.78
2023-03-23T18:36:34.955Z,79.63
2023-03-23T18:39:02.568Z,79.54
2023-03-23T18:41:29.806Z,79.64
2023-03-23T18:43:57.802Z,79.47
2023-03-23T18:46:25.651Z,79.61
2023-03-23T18:48:52.874Z,79.62
2023-03-23T18:51:20.045Z,79.64
2023-03-23T18:53:47.074Z,79.77
2023-03-23T18:56:17.388Z,80.18
2023-03-23T18:58:44.976Z,80.32
2023-03-23T19:01:16.230Z,80.53
2023-03-23T19:03:43.910Z,80.66
2023-03-23T19:06:16.813Z,81.22
2023-03-23T19:08:45.458Z,80.67
2023-03-23T19:11:13.416Z,80.99
2023-03-23T19:13:47.062Z,81.47
2023-03-23T19:16:22.055Z,80.54
2023-03-23T19:18:49.444Z,81.73
2023-03-23T19:21:19.712Z,81.47
2023-03-23T19:23:49.723Z,81.58
2023-03-23T19:26:24.006Z,81.93
2023-03-23T19:31:25.046Z,82.30
2023-03-23T19:33:53.550Z,82.25
2023-03-23T19:36:23.024Z,82.24
2023-03-23T19:38:50.883Z,82.53
2023-03-23T19:41:19.197Z,82.98
2023-03-23T19:43:46.839Z,82.36
2023-03-23T19:46:14.638Z,83.21
2023-03-23T19:48:41.951Z,82.52
2023-03-23T19:51:11.499Z,81.92
2023-03-23T19:53:39.587Z,82.55
2023-03-23T19:56:12.773Z,81.92
2023-03-23T19:58:39.993Z,82.25
2023-03-23T20:01:07.772Z,82.46
2023-03-23T20:03:36.240Z,82.54
2023-03-23T20:06:11.126Z,82.45
2023-03-23T20:08:43.800Z,82.78
2023-03-23T20:11:13.569Z,83.23
2023-03-23T20:13:41.601Z,83.59
2023-03-23T20:16:09.565Z,84.06
2023-03-23T20:18:38.125Z,83.98
2023-03-23T20:21:11.563Z,84.79
2023-03-23T20:23:39.739Z,84.50
2023-03-23T20:26:13.338Z,84.83
2023-03-23T20:28:40.873Z,84.89
2023-03-23T20:31:21.149Z,85.07
2023-03-23T20:34:08.679Z,85.83
2023-03-23T20:36:42.388Z,86.00
2023-03-23T20:39:12.787Z,85.59
2023-03-23T20:41:40.547Z,86.10
2023-03-23T20:44:14.240Z,86.21
2023-03-23T20:46:47.893Z,86.44
2023-03-23T20:49:16.081Z,85.95
2023-03-23T20:51:43.872Z,86.38
2023-03-23T20:54:14.258Z,86.42
2023-03-23T20:56:42.579Z,86.59
2023-03-23T20:59:10.180Z,86.75
2023-03-23T21:01:40.108Z,86.91
2023-03-23T21:04:15.087Z,87.21
2023-03-23T21:06:43.931Z,87.47
2023-03-23T21:09:11.725Z,87.40
2023-03-23T21:11:39.394Z,87.81
2023-03-23T21:14:06.846Z,87.71
2023-03-23T21:16:34.390Z,88.03
2023-03-23T21:19:02.532Z,88.00
2023-03-23T21:21:29.632Z,88.36
2023-03-23T21:23:57.694Z,88.30
2023-03-23T21:26:29.030Z,88.87
2023-03-23T21:29:00.046Z,89.26
2023-03-23T21:31:33.366Z,88.87
2023-03-23T21:34:01.422Z,88.99
2023-03-23T21:36:29.410Z,89.12
2023-03-23T21:38:56.882Z,89.62
2023-03-23T21:41:24.541Z,89.79
2023-03-23T21:43:51.892Z,90.13
2023-03-23T21:46:19.151Z,89.46
2023-03-23T21:48:51.720Z,90.29
2023-03-23T21:51:24.521Z,90.00
2023-03-23T21:53:54.455Z,90.46
2023-03-23T21:56:23.945Z,90.29
2023-03-23T21:58:51.760Z,90.18
2023-03-23T22:01:19.524Z,90.53
2023-03-23T22:03:47.068Z,90.00
2023-03-23T22:06:21.241Z,90.14
2023-03-23T22:08:48.337Z,90.27
2023-03-23T22:11:18.909Z,90.49
2023-03-23T22:13:46.650Z,90.11
2023-03-23T22:16:17.880Z,90.48
2023-03-23T22:18:46.515Z,90.42
2023-03-23T22:21:15.654Z,90.20
2023-03-23T22:23:44.281Z,90.27
2023-03-23T22:26:12.538Z,90.50
2023-03-23T22:28:40.595Z,90.14
2023-03-23T22:31:13.099Z,90.71
2023-03-23T22:33:40.546Z,90.39
2023-03-23T22:36:08.445Z,90.85
2023-03-23T22:38:37.504Z,90.90
2023-03-23T22:41:07.170Z,90.94
2023-03-23T22:43:35.645Z,91.21
2023-03-23T22:46:03.334Z,91.67
2023-03-23T22:48:31.078Z,91.82
2023-03-23T22:50:58.703Z,92.42
2023-03-23T22:53:26.018Z,92.24
2023-03-23T22:55:55.719Z,92.30
2023-03-23T22:58:23.363Z,92.31
2023-03-23T23:00:59.590Z,92.03
2023-03-23T23:03:27.938Z,91.43
2023-03-23T23:05:56.618Z,91.60
2023-03-23T23:08:25.146Z,91.66
2023-03-23T23:10:54.813Z,91.77
2023-03-23T23:13:22.629Z,92.28
2023-03-23T23:15:52.541Z,92.07
2023-03-23T23:18:20.712Z,92.21
2023-03-23T23:20:54.877Z,92.25
2023-03-23T23:23:24.033Z,92.35
2023-03-23T23:25:52.357Z,91.95
2023-03-23T23:28:20.867Z,92.45
2023-03-23T23:30:48.686Z,92.51
2023-03-23T23:33:16.188Z,93.33
2023-03-23T23:35:43.319Z,93.45
2023-03-23T23:38:12.746Z,94.05
2023-03-23T23:40:44.306Z,94.20
2023-03-23T23:43:13.458Z,94.37
2023-03-23T23:45:41.014Z,94.53
2023-03-23T23:48:08.612Z,94.68
2023-03-23T23:50:36.462Z,95.00
2023-03-23T23:53:05.039Z,95.22
2023-03-23T23:55:32.640Z,95.11
2023-03-23T23:57:59.851Z,95.53
